Time;durP1;ratioP1;P1;durP2;ratioP2;P2;SDS_P1;SDS_P2;PMS_P1;PMS_P2;Temp;Humidity;BMP_temperature;BMP_pressure;BME280_temperature;BME280_humidity;BME280_pressure;Samples;Min_cycle;Max_cycle;Signal;HPM_P1;HPM_P2
2023/03/19 00:00:08;;;;;;;7.07;1.50;;;26.80;29.50;;;;;;5084575;28;20072;-61
2023/03/19 00:02:36;;;;;;;7.97;1.80;;;26.70;29.20;;;;;;5060222;28;20066;-65
2023/03/19 00:05:04;;;;;;;9.07;2.13;;;26.50;29.00;;;;;;5078468;28;20109;-62
2023/03/19 00:07:31;;;;;;;7.88;2.38;;;26.40;29.70;;;;;;5086959;28;20119;-63
2023/03/19 00:09:58;;;;;;;13.38;2.15;;;26.30;29.30;;;;;;5085302;28;20074;-65
2023/03/19 00:12:24;;;;;;;8.10;1.92;;;26.20;29.70;;;;;;5081016;28;20085;-64
2023/03/19 00:14:51;;;;;;;9.57;2.40;;;26.10;29.60;;;;;;5083972;28;20105;-62
2023/03/19 00:17:17;;;;;;;22.98;2.78;;;26.20;30.00;;;;;;5085934;28;20172;-61
2023/03/19 00:19:43;;;;;;;5.53;1.95;;;26.20;29.60;;;;;;5084163;28;20588;-63
2023/03/19 00:22:10;;;;;;;10.25;2.08;;;26.20;29.70;;;;;;5083434;28;20069;-64
2023/03/19 00:24:37;;;;;;;22.10;2.78;;;26.20;29.50;;;;;;5083070;28;20172;-62
2023/03/19 00:27:03;;;;;;;10.18;2.20;;;26.00;29.80;;;;;;5083399;28;20146;-64
2023/03/19 00:29:30;;;;;;;7.97;2.10;;;25.90;30.00;;;;;;5080739;28;20469;-65
2023/03/19 00:31:56;;;;;;;5.85;1.90;;;25.80;30.00;;;;;;5084260;28;20157;-62
2023/03/19 00:34:23;;;;;;;12.10;2.25;;;25.70;30.00;;;;;;5077565;28;20070;-64
2023/03/19 00:36:49;;;;;;;21.13;3.55;;;25.60;30.10;;;;;;5083504;28;20078;-61
2023/03/19 00:39:16;;;;;;;12.45;2.72;;;25.70;29.90;;;;;;5080082;28;20078;-61
2023/03/19 00:41:49;;;;;;;6.43;2.40;;;25.60;29.90;;;;;;5082067;28;20079;-61
2023/03/19 00:44:19;;;;;;;8.70;2.65;;;25.60;29.80;;;;;;5083501;28;20062;-62
2023/03/19 00:46:46;;;;;;;7.10;1.95;;;25.40;29.90;;;;;;5081528;28;20088;-61
2023/03/19 00:49:13;;;;;;;6.28;1.80;;;25.30;30.00;;;;;;5079859;28;20077;-62
2023/03/19 00:51:42;;;;;;;4.50;1.63;;;25.20;31.00;;;;;;5081108;28;20077;-62
2023/03/19 00:54:12;;;;;;;8.98;2.08;;;25.10;30.80;;;;;;5080822;28;20542;-63
2023/03/19 00:56:39;;;;;;;10.60;2.70;;;25.00;31.20;;;;;;5079549;28;20078;-61
2023/03/19 00:59:06;;;;;;;13.85;2.58;;;25.00;31.70;;;;;;5081069;28;20134;-61
2023/03/19 01:01:33;;;;;;;6.13;2.33;;;25.00;31.20;;;;;;5078632;28;20071;-63
2023/03/19 01:03:59;;;;;;;8.82;2.10;;;24.90;31.10;;;;;;5078505;28;20542;-62
2023/03/19 01:06:26;;;;;;;5.80;1.95;;;24.80;31.70;;;;;;5082576;28;20207;-60
2023/03/19 01:08:52;;;;;;;9.63;2.60;;;24.70;32.50;;;;;;5074665;28;20128;-62
2023/03/19 01:11:19;;;;;;;8.95;2.45;;;24.60;31.70;;;;;;5081668;28;20475;-61
2023/03/19 01:13:45;;;;;;;9.50;2.08;;;24.50;31.40;;;;;;5083159;28;20095;-62
2023/03/19 01:16:12;;;;;;;6.55;1.85;;;24.50;32.40;;;;;;5083726;28;20072;-63
2023/03/19 01:18:38;;;;;;;3.85;2.00;;;24.40;32.30;;;;;;5081202;28;20092;-65
2023/03/19 01:21:07;;;;;;;7.18;2.65;;;24.40;32.60;;;;;;5080304;28;20463;-64
2023/03/19 01:23:33;;;;;;;7.57;2.35;;;24.20;31.90;;;;;;5079862;28;20110;-64
2023/03/19 01:25:59;;;;;;;13.45;2.50;;;24.20;32.50;;;;;;5079170;28;20085;-62
2023/03/19 01:28:26;;;;;;;6.80;2.15;;;24.10;32.00;;;;;;5064559;28;20089;-61
2023/03/19 01:30:52;;;;;;;22.83;16.58;;;24.00;32.90;;;;;;5079342;28;20459;-63
2023/03/19 01:33:19;;;;;;;18.08;7.53;;;23.90;33.80;;;;;;5082912;28;20084;-63
2023/03/19 01:35:47;;;;;;;29.58;17.75;;;23.80;33.10;;;;;;5079542;28;20092;-62
2023/03/19 01:38:13;;;;;;;11.85;8.55;;;23.80;33.30;;;;;;5079650;28;20083;-63
2023/03/19 01:40:48;;;;;;;11.07;6.35;;;23.70;32.80;;;;;;5079884;28;20087;-62
2023/03/19 01:43:23;;;;;;;11.80;4.05;;;23.60;33.60;;;;;;5081146;28;20083;-62
2023/03/19 01:46:11;;;;;;;9.20;2.35;;;23.50;33.50;;;;;;5081527;28;20413;-63
2023/03/19 01:48:40;;;;;;;10.73;2.65;;;23.40;34.00;;;;;;5062397;28;20784;-63
2023/03/19 01:51:09;;;;;;;12.13;2.30;;;23.40;34.50;;;;;;5087113;28;20095;-60
2023/03/19 01:53:38;;;;;;;10.38;2.42;;;23.20;33.50;;;;;;5087295;28;20460;-63
2023/03/19 01:56:35;;;;;;;9.45;2.88;;;23.20;33.60;;;;;;5077733;28;20095;-63
2023/03/19 01:59:34;;;;;;;10.93;2.92;;;23.20;33.50;;;;;;5080642;28;20630;-64
2023/03/19 02:02:04;;;;;;;13.93;3.22;;;23.10;33.40;;;;;;5083572;28;20084;-64
2023/03/19 02:04:32;;;;;;;15.27;3.55;;;23.10;34.20;;;;;;5084330;28;20144;-65
2023/03/19 02:07:00;;;;;;;12.18;3.13;;;23.10;34.20;;;;;;5079459;28;20072;-65
2023/03/19 02:09:27;;;;;;;16.13;3.85;;;23.00;35.00;;;;;;5081767;28;20078;-63
2023/03/19 02:11:54;;;;;;;17.35;3.88;;;23.00;35.20;;;;;;5081167;28;20527;-64
2023/03/19 02:14:21;;;;;;;13.07;4.63;;;22.90;35.10;;;;;;5079405;28;20156;-62
2023/03/19 02:16:48;;;;;;;15.23;4.20;;;22.90;34.60;;;;;;5077454;28;20080;-62
2023/03/19 02:19:41;;;;;;;17.05;4.45;;;22.90;34.40;;;;;;5082715;28;20095;-64
2023/03/19 02:22:10;;;;;;;11.00;4.10;;;22.90;35.00;;;;;;5080294;28;20087;-63
2023/03/19 02:25:00;;;;;;;14.48;3.88;;;22.80;35.40;;;;;;5085538;28;20068;-62
2023/03/19 02:27:27;;;;;;;17.73;6.30;;;22.80;36.40;;;;;;5082584;28;20114;-63
2023/03/19 02:29:53;;;;;;;27.05;8.00;;;22.70;35.90;;;;;;5082427;28;20140;-62
2023/03/19 02:32:20;;;;;;;19.77;8.52;;;22.60;35.80;;;;;;5079131;28;20076;-63
2023/03/19 02:34:47;;;;;;;31.30;11.75;;;22.60;36.50;;;;;;5082527;28;20076;-65
2023/03/19 02:37:21;;;;;;;30.35;12.80;;;22.50;36.60;;;;;;5088561;28;20075;-64
2023/03/19 02:39:53;;;;;;;21.23;10.38;;;22.40;36.00;;;;;;5082373;28;20091;-63
2023/03/19 02:42:21;;;;;;;29.80;10.02;;;22.40;35.70;;;;;;5088156;28;20075;-65
2023/03/19 02:44:48;;;;;;;21.85;7.80;;;22.30;37.70;;;;;;5088917;28;20071;-62
2023/03/19 02:47:15;;;;;;;16.50;6.28;;;22.30;37.80;;;;;;5085842;28;20075;-63
2023/03/19 02:49:41;;;;;;;15.95;5.55;;;22.20;37.40;;;;;;5076830;28;20075;-61
2023/03/19 02:52:08;;;;;;;19.85;5.60;;;22.10;37.70;;;;;;5083171;28;20432;-62
2023/03/19 02:54:34;;;;;;;24.23;6.78;;;22.10;38.50;;;;;;5085936;28;20071;-64
2023/03/19 02:57:01;;;;;;;25.33;5.93;;;22.00;39.50;;;;;;5080659;28;20078;-65
2023/03/19 02:59:27;;;;;;;21.40;6.38;;;22.00;39.40;;;;;;5076563;28;20091;-65
2023/03/19 03:01:53;;;;;;;29.85;6.82;;;21.90;39.50;;;;;;5087681;28;20526;-66
2023/03/19 03:04:20;;;;;;;14.00;5.53;;;21.90;39.50;;;;;;5084104;28;20076;-66
2023/03/19 03:06:46;;;;;;;28.83;6.57;;;21.80;39.40;;;;;;5086954;28;20083;-66
2023/03/19 03:09:13;;;;;;;22.95;6.70;;;21.80;39.70;;;;;;5084092;28;20136;-65
2023/03/19 03:11:40;;;;;;;19.63;6.82;;;21.70;39.10;;;;;;5082727;28;20539;-67
2023/03/19 03:14:07;;;;;;;25.35;7.38;;;21.70;38.90;;;;;;5087352;28;20095;-66
2023/03/19 03:16:33;;;;;;;24.40;6.93;;;21.60;38.70;;;;;;5080474;28;20603;-65
2023/03/19 03:19:01;;;;;;;21.05;6.25;;;21.60;38.60;;;;;;5090310;28;20096;-66
2023/03/19 03:21:28;;;;;;;19.05;5.47;;;21.60;38.80;;;;;;5085068;28;20087;-67
2023/03/19 03:23:55;;;;;;;16.70;6.22;;;21.60;38.90;;;;;;5059672;28;20068;-68
2023/03/19 03:26:21;;;;;;;26.00;6.32;;;21.40;39.60;;;;;;5079989;28;20060;-66
2023/03/19 03:28:48;;;;;;;19.20;5.95;;;21.50;39.20;;;;;;5084073;28;20078;-65
2023/03/19 03:31:14;;;;;;;21.98;5.63;;;21.50;39.00;;;;;;5083611;28;20068;-64
2023/03/19 03:33:40;;;;;;;25.25;6.70;;;21.50;39.70;;;;;;5084677;28;20075;-64
2023/03/19 03:36:07;;;;;;;21.23;9.45;;;21.40;39.30;;;;;;5083069;28;20150;-65
2023/03/19 03:38:34;;;;;;;31.58;10.63;;;21.40;40.40;;;;;;5083002;28;20095;-66
2023/03/19 03:41:00;;;;;;;24.92;11.15;;;21.40;40.10;;;;;;5083367;28;20422;-67
2023/03/19 03:43:27;;;;;;;27.65;11.73;;;21.30;40.50;;;;;;5081489;28;20412;-66
2023/03/19 03:45:53;;;;;;;27.20;11.73;;;21.30;41.90;;;;;;5080275;28;20068;-69
2023/03/19 03:48:20;;;;;;;34.72;13.48;;;21.30;41.00;;;;;;5088842;28;20446;-66
2023/03/19 03:50:47;;;;;;;37.55;12.98;;;21.20;42.30;;;;;;5090166;28;20074;-65
2023/03/19 03:53:14;;;;;;;32.85;12.43;;;21.20;41.50;;;;;;5085709;28;20111;-65
2023/03/19 03:55:41;;;;;;;32.78;11.77;;;21.10;42.90;;;;;;5088363;28;20072;-65
2023/03/19 03:58:07;;;;;;;38.22;14.25;;;21.10;43.30;;;;;;5089195;28;20071;-67
2023/03/19 04:00:34;;;;;;;34.75;14.15;;;21.10;43.60;;;;;;5090037;28;20505;-68
2023/03/19 04:03:01;;;;;;;51.25;17.20;;;21.10;43.10;;;;;;5066966;28;20069;-69
2023/03/19 04:05:28;;;;;;;39.08;16.42;;;21.00;43.60;;;;;;5059559;28;20506;-67
2023/03/19 04:07:55;;;;;;;39.13;17.42;;;21.00;43.70;;;;;;5085319;28;20706;-67
2023/03/19 04:10:21;;;;;;;32.90;16.90;;;20.90;42.90;;;;;;5089616;28;20125;-67
2023/03/19 04:12:48;;;;;;;36.65;17.02;;;20.90;42.90;;;;;;5086171;28;20067;-67
2023/03/19 04:15:15;;;;;;;46.42;18.42;;;20.80;43.70;;;;;;5087467;28;20754;-66
2023/03/19 04:17:42;;;;;;;42.83;19.10;;;20.80;44.30;;;;;;5078373;28;20071;-65
2023/03/19 04:20:09;;;;;;;38.90;15.35;;;20.70;44.70;;;;;;5081927;28;20517;-65
2023/03/19 04:22:36;;;;;;;46.67;15.98;;;20.70;46.10;;;;;;5084006;28;20080;-66
2023/03/19 04:25:03;;;;;;;43.83;13.77;;;20.60;45.70;;;;;;5084615;28;20074;-67
2023/03/19 04:27:30;;;;;;;32.08;10.02;;;20.60;45.20;;;;;;5077491;28;20095;-66
2023/03/19 04:29:56;;;;;;;97.80;13.00;;;20.60;44.20;;;;;;5084135;28;20079;-67
2023/03/19 04:32:23;;;;;;;44.20;9.75;;;20.60;45.40;;;;;;5083455;28;20072;-65
2023/03/19 04:34:50;;;;;;;129.02;16.25;;;20.50;46.10;;;;;;5076066;28;20102;-65
2023/03/19 04:37:16;;;;;;;60.38;11.98;;;20.50;46.50;;;;;;5087481;28;20911;-64
2023/03/19 04:39:43;;;;;;;35.13;10.15;;;20.40;45.70;;;;;;5066048;28;20117;-61
2023/03/19 04:42:10;;;;;;;26.77;9.38;;;20.30;45.20;;;;;;5086930;28;20178;-65
2023/03/19 04:44:37;;;;;;;37.67;10.43;;;20.30;45.40;;;;;;5065197;28;20078;-64
2023/03/19 04:47:04;;;;;;;35.33;12.25;;;20.30;44.90;;;;;;5086349;28;20451;-64
2023/03/19 04:49:31;;;;;;;36.38;11.50;;;20.30;44.50;;;;;;5079817;28;20075;-63
2023/03/19 04:51:57;;;;;;;29.40;9.45;;;20.20;44.30;;;;;;5085674;28;20068;-64
2023/03/19 04:54:24;;;;;;;29.67;9.73;;;20.20;44.80;;;;;;5083818;28;20132;-65
2023/03/19 04:56:52;;;;;;;42.45;11.05;;;20.20;44.70;;;;;;5082134;28;20075;-61
2023/03/19 04:59:18;;;;;;;30.98;9.25;;;20.20;44.70;;;;;;5087580;28;20130;-61
2023/03/19 05:01:45;;;;;;;25.88;8.07;;;20.20;44.60;;;;;;5088178;28;20079;-62
2023/03/19 05:04:11;;;;;;;17.65;7.07;;;20.10;44.50;;;;;;5083498;28;20535;-58
2023/03/19 05:06:38;;;;;;;24.48;6.10;;;20.10;44.70;;;;;;5079746;28;20174;-61
2023/03/19 05:09:05;;;;;;;17.85;4.82;;;20.10;44.20;;;;;;5080816;28;20078;-61
2023/03/19 05:11:32;;;;;;;15.80;4.97;;;20.10;44.30;;;;;;5084670;28;20071;-61
2023/03/19 05:13:58;;;;;;;12.82;4.60;;;20.10;44.70;;;;;;5082234;28;20238;-64
2023/03/19 05:16:25;;;;;;;12.00;4.40;;;20.10;44.40;;;;;;5077150;28;20106;-62
2023/03/19 05:18:51;;;;;;;14.18;3.70;;;20.00;44.80;;;;;;5083453;28;20182;-60
2023/03/19 05:21:17;;;;;;;20.83;3.90;;;20.00;44.80;;;;;;5082113;28;20080;-61
2023/03/19 05:23:44;;;;;;;20.15;4.43;;;20.00;45.20;;;;;;5113724;22;21698;-61
2023/03/19 05:26:11;;;;;;;26.13;4.43;;;20.00;46.50;;;;;;5058604;28;20071;-62
2023/03/19 05:28:38;;;;;;;21.00;4.03;;;20.00;45.40;;;;;;5103675;28;20072;-60
2023/03/19 05:31:05;;;;;;;19.35;5.05;;;19.90;45.40;;;;;;5104409;28;20470;-61
2023/03/19 05:33:32;;;;;;;24.63;6.15;;;19.90;48.30;;;;;;5105103;28;20420;-60
2023/03/19 05:35:58;;;;;;;22.30;6.18;;;19.80;47.20;;;;;;5108833;28;20067;-61
2023/03/19 05:38:25;;;;;;;17.90;4.80;;;19.80;46.50;;;;;;5106864;28;20170;-60
2023/03/19 05:40:51;;;;;;;21.48;5.00;;;19.80;48.50;;;;;;5106859;28;20433;-61
2023/03/19 05:43:18;;;;;;;15.43;3.97;;;19.70;47.30;;;;;;5103337;28;20081;-63
2023/03/19 05:45:53;;;;;;;18.60;3.75;;;19.70;46.40;;;;;;5102116;28;20090;-62
2023/03/19 05:48:19;;;;;;;9.40;3.17;;;19.70;46.40;;;;;;5107700;28;20078;-62
2023/03/19 05:50:46;;;;;;;15.18;3.80;;;19.70;46.80;;;;;;5104436;28;20117;-60
2023/03/19 05:53:12;;;;;;;18.65;2.90;;;19.70;47.10;;;;;;5105694;28;20066;-61
2023/03/19 05:55:39;;;;;;;22.05;3.45;;;19.60;47.90;;;;;;5109089;28;20071;-62
2023/03/19 05:58:06;;;;;;;12.88;3.47;;;19.60;48.30;;;;;;5034032;28;20490;-61
2023/03/19 06:00:33;;;;;;;15.38;3.80;;;19.60;47.70;;;;;;5057143;28;20115;-60
2023/03/19 06:02:59;;;;;;;24.63;4.45;;;19.60;48.00;;;;;;5104275;28;20174;-63
2023/03/19 06:05:26;;;;;;;19.85;4.95;;;19.50;48.10;;;;;;5110213;28;20529;-62
2023/03/19 06:07:52;;;;;;;27.77;8.05;;;19.50;49.20;;;;;;5105607;28;20175;-61
2023/03/19 06:10:20;;;;;;;28.20;6.47;;;19.50;49.30;;;;;;5090274;28;20170;-61
2023/03/19 06:12:46;;;;;;;27.40;11.18;;;19.50;49.00;;;;;;5073419;28;20151;-62
2023/03/19 06:15:13;;;;;;;23.30;8.90;;;19.40;49.80;;;;;;5085565;28;20080;-61
2023/03/19 06:17:39;;;;;;;29.35;8.00;;;19.40;49.80;;;;;;5085146;28;20870;-60
2023/03/19 06:20:06;;;;;;;25.42;7.65;;;19.40;49.60;;;;;;5084626;28;20129;-60
2023/03/19 06:22:32;;;;;;;26.48;17.52;;;19.30;50.10;;;;;;5086682;28;20206;-60
2023/03/19 06:24:59;;;;;;;19.38;6.80;;;19.30;50.50;;;;;;5090875;28;20101;-60
2023/03/19 06:27:25;;;;;;;27.52;6.18;;;19.30;50.30;;;;;;5085562;28;20435;-59
2023/03/19 06:29:52;;;;;;;23.95;6.60;;;19.20;50.70;;;;;;5095839;28;20071;-60
2023/03/19 06:32:18;;;;;;;34.63;10.60;;;19.10;50.20;;;;;;5091940;28;20550;-60
2023/03/19 06:34:45;;;;;;;29.60;9.57;;;19.10;51.10;;;;;;5093389;28;20077;-61
2023/03/19 06:37:11;;;;;;;33.00;9.80;;;19.10;50.90;;;;;;5089879;28;20124;-62
2023/03/19 06:39:38;;;;;;;25.77;8.45;;;19.10;49.90;;;;;;5090216;28;20091;-60
2023/03/19 06:42:04;;;;;;;29.60;8.00;;;19.10;50.00;;;;;;5087229;28;20146;-59
2023/03/19 06:44:31;;;;;;;30.13;9.15;;;19.10;49.60;;;;;;5085185;28;20144;-61
2023/03/19 06:46:57;;;;;;;35.40;8.57;;;19.10;49.60;;;;;;5096696;28;20530;-61
2023/03/19 06:49:24;;;;;;;28.33;7.55;;;19.10;50.50;;;;;;5086502;28;20079;-59
2023/03/19 06:51:50;;;;;;;29.40;7.95;;;19.10;48.90;;;;;;5085749;28;20095;-61
2023/03/19 06:54:17;;;;;;;26.95;8.57;;;19.10;48.70;;;;;;5089059;28;20529;-61
2023/03/19 06:56:43;;;;;;;30.55;9.45;;;19.10;49.00;;;;;;5087986;28;20191;-60
2023/03/19 06:59:11;;;;;;;41.15;8.73;;;19.10;49.20;;;;;;5091317;28;20148;-63
2023/03/19 07:01:40;;;;;;;38.67;10.02;;;19.10;49.10;;;;;;5073237;28;20071;-65
2023/03/19 07:04:08;;;;;;;32.97;8.75;;;19.20;49.40;;;;;;5099490;28;20741;-63
2023/03/19 07:06:34;;;;;;;31.65;7.43;;;19.30;49.50;;;;;;5083389;28;20163;-63
2023/03/19 07:09:01;;;;;;;27.85;7.90;;;19.30;49.10;;;;;;5091269;28;20119;-65
2023/03/19 07:11:27;;;;;;;24.63;7.78;;;19.30;49.50;;;;;;5089741;28;20093;-64
2023/03/19 07:13:53;;;;;;;18.42;7.53;;;19.30;49.60;;;;;;5078200;28;20118;-65
2023/03/19 07:16:20;;;;;;;18.90;7.07;;;19.40;49.10;;;;;;5082665;28;20129;-63
2023/03/19 07:18:46;;;;;;;28.85;7.05;;;19.40;48.90;;;;;;5078491;28;20083;-64
2023/03/19 07:21:13;;;;;;;18.45;6.70;;;19.40;48.50;;;;;;5090599;28;20151;-63
2023/03/19 07:23:40;;;;;;;27.70;7.85;;;19.40;48.30;;;;;;5093312;28;20580;-64
2023/03/19 07:26:06;;;;;;;30.77;9.45;;;19.40;48.10;;;;;;5093660;28;20083;-64
2023/03/19 07:28:33;;;;;;;40.25;11.05;;;19.40;48.30;;;;;;5093473;28;20071;-66
2023/03/19 07:30:59;;;;;;;41.70;12.02;;;19.40;48.50;;;;;;5096147;28;20078;-66
2023/03/19 07:33:26;;;;;;;50.22;24.65;;;19.40;48.70;;;;;;5088504;28;20071;-65
2023/03/19 07:35:52;;;;;;;41.92;16.30;;;19.40;49.10;;;;;;5094708;28;20505;-64
2023/03/19 07:38:19;;;;;;;44.08;12.13;;;19.40;48.90;;;;;;5087602;28;20074;-65
2023/03/19 07:40:45;;;;;;;34.97;11.55;;;19.40;48.50;;;;;;5084363;28;20094;-64
2023/03/19 07:43:12;;;;;;;40.65;10.90;;;19.30;49.00;;;;;;5094143;28;20102;-64
2023/03/19 07:45:38;;;;;;;43.45;10.48;;;19.40;49.10;;;;;;5096303;28;20528;-65
2023/03/19 07:48:05;;;;;;;31.45;10.20;;;19.30;48.80;;;;;;5086930;28;20076;-66
2023/03/19 07:50:32;;;;;;;38.03;10.38;;;19.40;48.90;;;;;;5093408;28;20068;-63
2023/03/19 07:52:58;;;;;;;32.03;9.25;;;19.30;49.50;;;;;;5096109;28;20084;-65
2023/03/19 07:55:25;;;;;;;24.35;7.95;;;19.30;49.10;;;;;;5093533;28;20078;-66
2023/03/19 07:57:52;;;;;;;23.55;7.72;;;19.30;47.90;;;;;;5087445;28;20079;-64
2023/03/19 08:00:18;;;;;;;15.10;5.90;;;19.10;48.00;;;;;;5101599;28;20110;-66
2023/03/19 08:02:45;;;;;;;21.55;5.97;;;19.00;48.00;;;;;;5089303;28;20110;-64
2023/03/19 08:05:12;;;;;;;20.25;5.90;;;19.10;48.20;;;;;;5098846;28;20079;-64
2023/03/19 08:07:38;;;;;;;20.30;5.78;;;19.10;48.90;;;;;;5092233;28;20084;-63
2023/03/19 08:10:06;;;;;;;26.80;6.85;;;19.10;48.70;;;;;;5093450;28;20067;-65
2023/03/19 08:12:33;;;;;;;25.13;6.40;;;19.20;49.30;;;;;;5093898;28;20095;-63
2023/03/19 08:14:59;;;;;;;21.60;6.75;;;19.20;48.60;;;;;;5090536;28;20075;-64
2023/03/19 08:17:26;;;;;;;26.33;7.13;;;19.10;47.70;;;;;;5087386;28;20099;-61
2023/03/19 08:19:52;;;;;;;30.77;8.25;;;19.10;47.60;;;;;;5097338;28;20174;-63
2023/03/19 08:22:19;;;;;;;25.20;7.78;;;19.20;47.70;;;;;;5088446;28;20103;-65
2023/03/19 08:24:45;;;;;;;30.20;7.78;;;19.20;48.00;;;;;;5084050;28;20558;-65
2023/03/19 08:27:12;;;;;;;24.67;7.70;;;19.20;48.80;;;;;;5094821;28;20452;-65
2023/03/19 08:29:38;;;;;;;36.35;8.65;;;19.20;49.10;;;;;;5095336;28;20086;-64
2023/03/19 08:32:05;;;;;;;31.10;9.13;;;19.10;49.40;;;;;;5094909;28;20099;-64
2023/03/19 08:34:32;;;;;;;26.30;7.45;;;19.10;49.20;;;;;;5084084;28;20078;-64
2023/03/19 08:36:58;;;;;;;46.47;8.68;;;19.10;48.60;;;;;;5092649;28;20193;-65
2023/03/19 08:39:25;;;;;;;28.20;8.52;;;19.10;50.40;;;;;;5092310;28;20460;-64
2023/03/19 08:41:51;;;;;;;34.80;8.90;;;19.00;49.30;;;;;;5087439;28;20076;-66
2023/03/19 08:44:17;;;;;;;39.13;8.35;;;19.00;49.20;;;;;;5087413;28;20067;-61
2023/03/19 08:46:44;;;;;;;42.90;9.70;;;19.00;49.30;;;;;;5073292;28;20205;-64
2023/03/19 08:49:10;;;;;;;39.03;10.55;;;18.90;49.30;;;;;;5091091;28;20076;-64
2023/03/19 08:51:37;;;;;;;39.78;10.40;;;18.90;51.70;;;;;;5095362;28;20684;-66
2023/03/19 08:54:03;;;;;;;33.95;10.68;;;18.80;50.20;;;;;;5086020;28;20098;-65
2023/03/19 08:56:30;;;;;;;32.90;9.32;;;18.80;49.80;;;;;;5088457;28;20098;-63
2023/03/19 08:58:57;;;;;;;37.05;10.05;;;18.80;50.20;;;;;;5072700;28;20177;-63
2023/03/19 09:01:23;;;;;;;37.95;10.13;;;18.80;50.20;;;;;;5058340;28;20067;-63
2023/03/19 09:03:49;;;;;;;30.98;9.90;;;18.80;51.40;;;;;;5086372;28;20071;-62
2023/03/19 09:06:16;;;;;;;40.45;10.27;;;18.70;51.90;;;;;;5075843;28;20078;-66
2023/03/19 09:08:43;;;;;;;43.55;11.50;;;18.70;51.70;;;;;;5086915;28;20182;-63
2023/03/19 09:11:10;;;;;;;51.17;10.40;;;18.80;51.30;;;;;;5095004;28;20075;-64
2023/03/19 09:13:36;;;;;;;42.13;10.10;;;18.80;50.80;;;;;;5080695;28;20161;-63
2023/03/19 09:16:03;;;;;;;46.67;11.15;;;18.80;50.80;;;;;;5090801;28;20067;-66
2023/03/19 09:18:30;;;;;;;46.63;11.02;;;18.80;51.20;;;;;;5094937;28;20092;-65
2023/03/19 09:20:56;;;;;;;42.95;10.45;;;18.80;51.30;;;;;;5089536;28;20456;-65
2023/03/19 09:23:23;;;;;;;39.47;10.82;;;18.80;52.20;;;;;;5076774;28;20118;-65
2023/03/19 09:25:50;;;;;;;42.90;11.18;;;18.80;51.30;;;;;;5079260;28;20075;-63
2023/03/19 09:28:17;;;;;;;47.00;11.80;;;18.80;52.00;;;;;;5100495;28;20079;-64
2023/03/19 09:30:46;;;;;;;45.50;11.25;;;18.80;51.40;;;;;;5097138;28;20493;-65
2023/03/19 09:33:13;;;;;;;45.83;10.52;;;18.80;50.80;;;;;;5089759;28;20099;-64
2023/03/19 09:35:40;;;;;;;44.50;11.60;;;18.70;52.70;;;;;;5090598;28;20462;-63
2023/03/19 09:38:07;;;;;;;37.63;11.13;;;18.60;52.60;;;;;;5097907;28;20528;-66
2023/03/19 09:40:47;;;;;;;54.60;12.95;;;18.50;52.50;;;;;;5084849;28;20170;-64
2023/03/19 09:43:32;;;;;;;56.72;12.30;;;18.50;52.20;;;;;;5088667;28;20071;-63
2023/03/19 09:46:01;;;;;;;51.33;12.98;;;18.50;51.80;;;;;;5086340;28;20067;-63
2023/03/19 09:48:39;;;;;;;41.05;11.50;;;18.50;51.70;;;;;;5078974;28;20079;-64
2023/03/19 09:51:11;;;;;;;41.88;11.65;;;18.40;53.10;;;;;;5074778;28;20109;-64
2023/03/19 09:53:46;;;;;;;31.63;10.57;;;18.50;52.80;;;;;;5077884;28;20093;-65
2023/03/19 09:56:18;;;;;;;41.85;11.63;;;18.50;52.00;;;;;;5086667;28;20070;-65
2023/03/19 09:58:45;;;;;;;43.83;12.45;;;18.50;53.10;;;;;;5090929;28;20083;-65
2023/03/19 10:01:44;;;;;;;29.58;10.95;;;18.40;53.90;;;;;;5099328;28;20154;-65
2023/03/19 10:04:41;;;;;;;43.70;11.35;;;18.30;53.60;;;;;;5024198;28;20093;-65
2023/03/19 10:07:14;;;;;;;50.20;12.75;;;18.40;53.60;;;;;;5020838;28;20165;-66
2023/03/19 10:10:12;;;;;;;51.42;12.80;;;18.30;53.70;;;;;;5019511;28;20431;-63
2023/03/19 10:13:19;;;;;;;45.75;13.18;;;18.40;53.70;;;;;;4998266;28;20447;-64
2023/03/19 10:15:46;;;;;;;57.67;15.18;;;18.40;53.60;;;;;;5001401;28;20537;-64
2023/03/19 10:18:37;;;;;;;57.88;16.08;;;18.30;54.00;;;;;;5018521;28;20154;-64
2023/03/19 10:21:07;;;;;;;54.67;15.55;;;18.30;54.10;;;;;;5023607;28;20098;-66
2023/03/19 10:23:42;;;;;;;41.80;14.05;;;18.40;53.30;;;;;;5017319;28;20640;-65
2023/03/19 10:26:13;;;;;;;42.92;13.32;;;18.50;53.30;;;;;;5026048;28;20076;-64
2023/03/19 10:28:42;;;;;;;55.60;15.18;;;18.40;53.20;;;;;;5027273;28;20085;-64
2023/03/19 10:31:22;;;;;;;51.78;14.00;;;18.40;53.70;;;;;;5016426;28;20119;-64
2023/03/19 10:34:07;;;;;;;51.50;13.07;;;18.40;53.50;;;;;;5024144;28;20089;-62
2023/03/19 10:36:36;;;;;;;48.00;13.45;;;18.40;53.30;;;;;;5016749;28;20218;-64
2023/03/19 10:39:05;;;;;;;41.35;12.32;;;18.40;53.80;;;;;;5020134;28;20482;-66
2023/03/19 10:42:02;;;;;;;50.47;12.60;;;18.50;53.70;;;;;;5073378;28;20117;-65
2023/03/19 10:44:43;;;;;;;62.10;13.32;;;18.50;55.10;;;;;;5087117;28;20087;-66
2023/03/19 10:47:14;;;;;;;39.83;11.40;;;18.40;54.90;;;;;;5101378;28;20063;-65
2023/03/19 10:49:41;;;;;;;37.53;12.25;;;18.30;56.20;;;;;;5094501;28;20457;-65
2023/03/19 10:52:29;;;;;;;43.40;12.82;;;18.20;56.40;;;;;;5089636;28;20071;-62
2023/03/19 10:55:20;;;;;;;46.53;13.48;;;18.20;56.20;;;;;;5092199;28;20575;-64
2023/03/19 10:57:50;;;;;;;45.53;13.43;;;18.20;55.70;;;;;;5085870;28;20095;-65
2023/03/19 11:00:31;;;;;;;46.55;12.95;;;18.20;55.70;;;;;;5090946;28;20114;-63
2023/03/19 11:02:58;;;;;;;55.25;12.55;;;18.30;54.70;;;;;;5090090;28;20130;-63
2023/03/19 11:05:32;;;;;;;46.33;12.85;;;18.30;54.60;;;;;;5095051;28;20608;-62
2023/03/19 11:08:05;;;;;;;45.13;13.48;;;18.30;54.20;;;;;;5087636;28;20538;-64
2023/03/19 11:10:34;;;;;;;56.97;14.18;;;18.20;55.40;;;;;;5090697;28;20076;-64
2023/03/19 11:13:05;;;;;;;45.97;13.20;;;18.10;55.00;;;;;;5093011;28;20098;-65
2023/03/19 11:15:38;;;;;;;51.42;13.48;;;18.00;54.70;;;;;;5079836;28;20524;-64
2023/03/19 11:18:21;;;;;;;47.90;13.10;;;18.10;54.30;;;;;;5084649;28;20070;-63
2023/03/19 11:21:01;;;;;;;48.38;11.95;;;18.10;53.90;;;;;;5087199;28;21189;-65
2023/03/19 11:23:30;;;;;;;42.90;11.95;;;18.10;53.40;;;;;;5097760;28;20187;-65
2023/03/19 11:26:03;;;;;;;43.33;11.65;;;18.10;53.10;;;;;;5092602;28;20540;-63
2023/03/19 11:28:32;;;;;;;46.40;12.70;;;18.20;52.50;;;;;;5078554;28;20059;-63
2023/03/19 11:31:43;;;;;;;38.65;12.38;;;18.20;52.70;;;;;;5099756;28;20513;-63
2023/03/19 11:34:12;;;;;;;54.95;14.00;;;18.20;52.70;;;;;;5013745;28;20559;-64
2023/03/19 11:37:06;;;;;;;43.00;13.77;;;18.20;52.50;;;;;;5018880;28;20085;-63
2023/03/19 11:39:50;;;;;;;45.42;13.88;;;18.10;52.70;;;;;;5000858;28;20097;-65
2023/03/19 11:42:25;;;;;;;46.15;15.18;;;18.20;52.50;;;;;;5019550;28;20111;-64
2023/03/19 11:45:19;;;;;;;54.95;16.35;;;18.20;52.30;;;;;;5019147;28;20546;-63
2023/03/19 11:47:56;;;;;;;48.63;16.85;;;18.20;52.20;;;;;;5023080;28;20070;-64
2023/03/19 11:50:28;;;;;;;55.78;15.93;;;18.20;52.50;;;;;;5025709;28;21237;-64
2023/03/19 11:53:01;;;;;;;42.92;15.05;;;18.20;52.40;;;;;;5019688;28;20089;-64
2023/03/19 11:56:03;;;;;;;48.35;16.67;;;18.20;52.90;;;;;;5027108;28;20164;-65
2023/03/19 11:58:56;;;;;;;48.33;15.05;;;18.10;52.50;;;;;;5019962;28;20103;-64
2023/03/19 12:01:24;;;;;;;53.17;15.77;;;18.20;52.80;;;;;;5023166;28;20069;-65
2023/03/19 12:04:14;;;;;;;52.88;16.00;;;18.10;53.00;;;;;;5028781;28;20127;-63
2023/03/19 12:06:51;;;;;;;41.53;14.77;;;18.10;52.40;;;;;;5094066;28;20413;-65
2023/03/19 12:09:48;;;;;;;47.58;15.43;;;18.00;52.00;;;;;;5094951;28;20544;-64
2023/03/19 12:12:17;;;;;;;43.92;13.75;;;18.10;52.60;;;;;;5101806;28;20571;-64
2023/03/19 12:14:46;;;;;;;44.15;13.57;;;18.00;52.20;;;;;;5095383;28;20083;-65
2023/03/19 12:17:36;;;;;;;39.60;12.85;;;17.90;52.70;;;;;;5090164;28;20080;-67
2023/03/19 12:20:19;;;;;;;37.60;12.85;;;18.00;52.40;;;;;;5095624;28;20098;-66
2023/03/19 12:23:12;;;;;;;47.60;13.85;;;18.00;52.80;;;;;;5094676;28;20568;-65
2023/03/19 12:26:03;;;;;;;42.95;13.88;;;17.90;53.10;;;;;;5088874;28;20111;-65
2023/03/19 12:28:40;;;;;;;47.70;13.00;;;17.90;52.30;;;;;;5086130;28;20082;-65
2023/03/19 12:31:14;;;;;;;31.75;12.95;;;18.00;52.30;;;;;;5092768;28;20063;-64
2023/03/19 12:34:25;;;;;;;33.55;12.25;;;17.90;51.80;;;;;;5088713;28;20094;-66
2023/03/19 12:37:09;;;;;;;41.30;12.60;;;17.90;52.10;;;;;;5057479;28;20208;-66
2023/03/19 12:39:43;;;;;;;36.22;12.00;;;17.90;52.50;;;;;;5093684;28;20081;-64
2023/03/19 12:42:15;;;;;;;31.17;10.63;;;18.00;52.00;;;;;;5099948;28;20421;-63
2023/03/19 12:44:53;;;;;;;27.13;10.52;;;18.00;51.50;;;;;;5100872;28;20078;-64
2023/03/19 12:47:22;;;;;;;27.85;9.32;;;18.00;51.10;;;;;;5094678;28;20635;-65